sensor_id;sensor_type;location;lat;lon;timestamp;P1;durP1;ratioP1;P2;durP2;ratioP2
36827;SDS011;22766;48.042;11.192;2022-11-09T00:01:38;3.80;;;1.83;;
36827;SDS011;22766;48.042;11.192;2022-11-09T00:04:05;4.75;;;1.83;;
36827;SDS011;22766;48.042;11.192;2022-11-09T00:06:33;3.22;;;1.92;;
36827;SDS011;22766;48.042;11.192;2022-11-09T00:09:02;2.75;;;1.70;;
36827;SDS011;22766;48.042;11.192;2022-11-09T00:11:33;4.45;;;2.28;;
36827;SDS011;22766;48.042;11.192;2022-11-09T00:14:00;4.35;;;2.05;;
36827;SDS011;22766;48.042;11.192;2022-11-09T00:16:27;2.90;;;1.75;;
36827;SDS011;22766;48.042;11.192;2022-11-09T00:18:53;2.85;;;1.50;;
36827;SDS011;22766;48.042;11.192;2022-11-09T00:21:21;5.80;;;2.08;;
36827;SDS011;22766;48.042;11.192;2022-11-09T00:23:49;5.72;;;2.33;;
36827;SDS011;22766;48.042;11.192;2022-11-09T00:26:17;3.28;;;2.00;;
36827;SDS011;22766;48.042;11.192;2022-11-09T00:28:45;4.65;;;2.35;;
36827;SDS011;22766;48.042;11.192;2022-11-09T00:31:13;1.73;;;1.30;;
36827;SDS011;22766;48.042;11.192;2022-11-09T00:33:46;2.75;;;1.40;;
36827;SDS011;22766;48.042;11.192;2022-11-09T00:36:14;4.73;;;2.20;;
36827;SDS011;22766;48.042;11.192;2022-11-09T00:38:41;3.22;;;2.05;;
36827;SDS011;22766;48.042;11.192;2022-11-09T00:41:08;3.88;;;2.13;;
36827;SDS011;22766;48.042;11.192;2022-11-09T00:43:36;4.30;;;2.20;;
36827;SDS011;22766;48.042;11.192;2022-11-09T00:46:04;4.30;;;2.00;;
36827;SDS011;22766;48.042;11.192;2022-11-09T00:48:31;6.70;;;2.38;;
36827;SDS011;22766;48.042;11.192;2022-11-09T00:51:00;3.72;;;1.88;;
36827;SDS011;22766;48.042;11.192;2022-11-09T00:53:27;6.07;;;2.30;;
36827;SDS011;22766;48.042;11.192;2022-11-09T00:58:22;3.42;;;2.10;;
36827;SDS011;22766;48.042;11.192;2022-11-09T01:00:50;2.58;;;1.67;;
36827;SDS011;22766;48.042;11.192;2022-11-09T01:03:18;2.42;;;1.83;;
36827;SDS011;22766;48.042;11.192;2022-11-09T01:05:46;2.40;;;1.40;;
36827;SDS011;22766;48.042;11.192;2022-11-09T01:08:16;4.90;;;1.80;;
36827;SDS011;22766;48.042;11.192;2022-11-09T01:10:45;2.95;;;1.67;;
36827;SDS011;22766;48.042;11.192;2022-11-09T01:13:15;3.93;;;2.13;;
36827;SDS011;22766;48.042;11.192;2022-11-09T01:15:45;4.00;;;2.05;;
36827;SDS011;22766;48.042;11.192;2022-11-09T01:18:14;4.20;;;2.03;;
36827;SDS011;22766;48.042;11.192;2022-11-09T01:20:43;3.97;;;2.08;;
36827;SDS011;22766;48.042;11.192;2022-11-09T01:23:11;3.88;;;1.75;;
36827;SDS011;22766;48.042;11.192;2022-11-09T01:25:39;3.45;;;1.75;;
36827;SDS011;22766;48.042;11.192;2022-11-09T01:28:07;4.60;;;1.92;;
36827;SDS011;22766;48.042;11.192;2022-11-09T01:30:36;4.60;;;2.22;;
36827;SDS011;22766;48.042;11.192;2022-11-09T01:33:05;4.00;;;1.60;;
36827;SDS011;22766;48.042;11.192;2022-11-09T01:35:33;2.78;;;1.80;;
36827;SDS011;22766;48.042;11.192;2022-11-09T01:38:03;4.18;;;1.65;;
36827;SDS011;22766;48.042;11.192;2022-11-09T01:40:32;5.32;;;1.95;;
36827;SDS011;22766;48.042;11.192;2022-11-09T01:43:16;2.28;;;1.55;;
36827;SDS011;22766;48.042;11.192;2022-11-09T01:45:50;2.55;;;1.58;;
36827;SDS011;22766;48.042;11.192;2022-11-09T01:53:58;2.53;;;1.40;;
36827;SDS011;22766;48.042;11.192;2022-11-09T01:56:30;3.85;;;1.52;;
36827;SDS011;22766;48.042;11.192;2022-11-09T01:59:02;3.33;;;1.60;;
36827;SDS011;22766;48.042;11.192;2022-11-09T02:01:32;4.35;;;1.85;;
36827;SDS011;22766;48.042;11.192;2022-11-09T02:04:20;2.00;;;1.60;;
36827;SDS011;22766;48.042;11.192;2022-11-09T02:06:53;5.60;;;1.95;;
36827;SDS011;22766;48.042;11.192;2022-11-09T02:09:24;4.57;;;2.10;;
36827;SDS011;22766;48.042;11.192;2022-11-09T02:12:12;3.60;;;1.75;;
36827;SDS011;22766;48.042;11.192;2022-11-09T02:14:39;2.65;;;1.65;;
36827;SDS011;22766;48.042;11.192;2022-11-09T02:17:07;2.47;;;1.70;;
36827;SDS011;22766;48.042;11.192;2022-11-09T02:19:33;2.85;;;1.55;;
36827;SDS011;22766;48.042;11.192;2022-11-09T02:22:01;2.47;;;1.50;;
36827;SDS011;22766;48.042;11.192;2022-11-09T02:24:31;1.98;;;1.58;;
36827;SDS011;22766;48.042;11.192;2022-11-09T02:26:58;3.55;;;1.50;;
36827;SDS011;22766;48.042;11.192;2022-11-09T02:29:27;1.48;;;1.02;;
36827;SDS011;22766;48.042;11.192;2022-11-09T02:31:59;3.05;;;1.30;;
36827;SDS011;22766;48.042;11.192;2022-11-09T02:34:32;2.70;;;1.65;;
36827;SDS011;22766;48.042;11.192;2022-11-09T02:37:00;3.42;;;1.48;;
36827;SDS011;22766;48.042;11.192;2022-11-09T02:39:26;2.80;;;1.50;;
36827;SDS011;22766;48.042;11.192;2022-11-09T02:42:10;3.92;;;1.60;;
36827;SDS011;22766;48.042;11.192;2022-11-09T02:44:49;2.35;;;1.52;;
36827;SDS011;22766;48.042;11.192;2022-11-09T02:47:21;2.33;;;1.45;;
36827;SDS011;22766;48.042;11.192;2022-11-09T02:49:47;2.72;;;1.60;;
36827;SDS011;22766;48.042;11.192;2022-11-09T02:52:15;3.28;;;1.75;;
36827;SDS011;22766;48.042;11.192;2022-11-09T02:54:43;3.22;;;1.70;;
36827;SDS011;22766;48.042;11.192;2022-11-09T02:57:10;2.33;;;1.30;;
36827;SDS011;22766;48.042;11.192;2022-11-09T02:59:37;3.10;;;1.50;;
36827;SDS011;22766;48.042;11.192;2022-11-09T03:02:04;3.15;;;1.88;;
36827;SDS011;22766;48.042;11.192;2022-11-09T03:04:31;3.05;;;1.35;;
36827;SDS011;22766;48.042;11.192;2022-11-09T03:06:59;1.83;;;1.40;;
36827;SDS011;22766;48.042;11.192;2022-11-09T03:09:26;2.00;;;1.17;;
36827;SDS011;22766;48.042;11.192;2022-11-09T03:11:54;4.93;;;1.77;;
36827;SDS011;22766;48.042;11.192;2022-11-09T03:14:21;2.08;;;1.33;;
36827;SDS011;22766;48.042;11.192;2022-11-09T03:16:52;1.63;;;1.17;;
36827;SDS011;22766;48.042;11.192;2022-11-09T03:19:19;5.28;;;1.27;;
36827;SDS011;22766;48.042;11.192;2022-11-09T03:21:49;2.63;;;1.20;;
36827;SDS011;22766;48.042;11.192;2022-11-09T03:24:20;2.67;;;1.40;;
36827;SDS011;22766;48.042;11.192;2022-11-09T03:26:47;4.35;;;1.75;;
36827;SDS011;22766;48.042;11.192;2022-11-09T03:29:14;1.33;;;0.90;;
36827;SDS011;22766;48.042;11.192;2022-11-09T03:31:41;1.98;;;1.20;;
36827;SDS011;22766;48.042;11.192;2022-11-09T03:34:08;2.05;;;1.48;;
36827;SDS011;22766;48.042;11.192;2022-11-09T03:36:35;1.92;;;1.15;;
36827;SDS011;22766;48.042;11.192;2022-11-09T03:39:01;2.25;;;1.38;;
36827;SDS011;22766;48.042;11.192;2022-11-09T03:41:30;3.45;;;1.52;;
36827;SDS011;22766;48.042;11.192;2022-11-09T03:43:56;1.88;;;1.20;;
36827;SDS011;22766;48.042;11.192;2022-11-09T03:46:23;2.50;;;1.20;;
36827;SDS011;22766;48.042;11.192;2022-11-09T03:48:50;2.00;;;1.23;;
36827;SDS011;22766;48.042;11.192;2022-11-09T03:51:16;1.95;;;1.50;;
36827;SDS011;22766;48.042;11.192;2022-11-09T03:53:43;2.08;;;1.48;;
36827;SDS011;22766;48.042;11.192;2022-11-09T03:56:09;2.90;;;1.48;;
36827;SDS011;22766;48.042;11.192;2022-11-09T03:58:36;1.38;;;1.05;;
36827;SDS011;22766;48.042;11.192;2022-11-09T04:01:02;3.35;;;1.52;;
36827;SDS011;22766;48.042;11.192;2022-11-09T04:03:29;2.25;;;1.20;;
36827;SDS011;22766;48.042;11.192;2022-11-09T04:05:59;2.33;;;1.35;;
36827;SDS011;22766;48.042;11.192;2022-11-09T04:08:26;2.30;;;1.35;;
36827;SDS011;22766;48.042;11.192;2022-11-09T04:10:52;1.88;;;1.08;;
36827;SDS011;22766;48.042;11.192;2022-11-09T04:13:19;3.42;;;1.33;;
36827;SDS011;22766;48.042;11.192;2022-11-09T04:15:46;3.03;;;1.20;;
36827;SDS011;22766;48.042;11.192;2022-11-09T04:18:13;2.92;;;1.85;;
36827;SDS011;22766;48.042;11.192;2022-11-09T04:20:41;2.88;;;1.30;;
36827;SDS011;22766;48.042;11.192;2022-11-09T04:23:09;1.30;;;0.90;;
36827;SDS011;22766;48.042;11.192;2022-11-09T04:25:38;2.47;;;1.27;;
36827;SDS011;22766;48.042;11.192;2022-11-09T04:28:07;2.10;;;1.00;;
36827;SDS011;22766;48.042;11.192;2022-11-09T04:30:37;2.15;;;1.38;;
36827;SDS011;22766;48.042;11.192;2022-11-09T04:33:04;1.67;;;1.10;;
36827;SDS011;22766;48.042;11.192;2022-11-09T04:35:32;2.38;;;1.33;;
36827;SDS011;22766;48.042;11.192;2022-11-09T04:38:00;9.57;;;1.63;;
36827;SDS011;22766;48.042;11.192;2022-11-09T04:40:30;2.08;;;1.08;;
36827;SDS011;22766;48.042;11.192;2022-11-09T04:42:58;1.77;;;1.10;;
36827;SDS011;22766;48.042;11.192;2022-11-09T04:45:28;2.00;;;0.87;;
36827;SDS011;22766;48.042;11.192;2022-11-09T04:47:56;3.10;;;1.83;;
36827;SDS011;22766;48.042;11.192;2022-11-09T04:50:24;1.90;;;1.27;;
36827;SDS011;22766;48.042;11.192;2022-11-09T04:52:51;3.88;;;1.50;;
36827;SDS011;22766;48.042;11.192;2022-11-09T04:55:17;4.90;;;1.13;;
36827;SDS011;22766;48.042;11.192;2022-11-09T04:57:44;4.00;;;1.10;;
36827;SDS011;22766;48.042;11.192;2022-11-09T05:00:11;2.00;;;0.90;;
36827;SDS011;22766;48.042;11.192;2022-11-09T05:02:38;5.18;;;1.10;;
36827;SDS011;22766;48.042;11.192;2022-11-09T05:05:07;1.52;;;0.80;;
36827;SDS011;22766;48.042;11.192;2022-11-09T05:07:34;2.08;;;1.05;;
36827;SDS011;22766;48.042;11.192;2022-11-09T05:10:01;3.35;;;1.40;;
36827;SDS011;22766;48.042;11.192;2022-11-09T05:12:28;2.17;;;1.08;;
36827;SDS011;22766;48.042;11.192;2022-11-09T05:14:55;1.70;;;1.15;;
36827;SDS011;22766;48.042;11.192;2022-11-09T05:17:21;5.20;;;1.50;;
36827;SDS011;22766;48.042;11.192;2022-11-09T05:19:48;1.90;;;1.15;;
36827;SDS011;22766;48.042;11.192;2022-11-09T05:22:21;3.22;;;1.38;;
36827;SDS011;22766;48.042;11.192;2022-11-09T05:25:06;1.73;;;1.23;;
36827;SDS011;22766;48.042;11.192;2022-11-09T05:27:33;2.20;;;1.10;;
36827;SDS011;22766;48.042;11.192;2022-11-09T05:29:59;2.35;;;1.30;;
36827;SDS011;22766;48.042;11.192;2022-11-09T05:32:26;1.73;;;1.13;;
36827;SDS011;22766;48.042;11.192;2022-11-09T05:34:52;3.85;;;1.38;;
36827;SDS011;22766;48.042;11.192;2022-11-09T05:37:19;2.00;;;1.38;;
36827;SDS011;22766;48.042;11.192;2022-11-09T05:39:47;1.40;;;1.05;;
36827;SDS011;22766;48.042;11.192;2022-11-09T05:42:14;2.95;;;1.10;;
36827;SDS011;22766;48.042;11.192;2022-11-09T05:44:40;3.35;;;1.45;;
36827;SDS011;22766;48.042;11.192;2022-11-09T05:47:07;2.17;;;1.42;;
36827;SDS011;22766;48.042;11.192;2022-11-09T05:49:33;3.45;;;1.48;;
36827;SDS011;22766;48.042;11.192;2022-11-09T05:52:00;2.13;;;1.00;;
36827;SDS011;22766;48.042;11.192;2022-11-09T05:54:26;2.50;;;1.65;;
36827;SDS011;22766;48.042;11.192;2022-11-09T05:56:53;1.83;;;0.98;;
36827;SDS011;22766;48.042;11.192;2022-11-09T05:59:20;2.70;;;1.20;;
36827;SDS011;22766;48.042;11.192;2022-11-09T06:01:46;2.78;;;1.48;;
36827;SDS011;22766;48.042;11.192;2022-11-09T06:04:13;5.18;;;1.58;;
36827;SDS011;22766;48.042;11.192;2022-11-09T06:06:41;2.83;;;1.30;;
36827;SDS011;22766;48.042;11.192;2022-11-09T06:09:08;2.83;;;1.23;;
36827;SDS011;22766;48.042;11.192;2022-11-09T06:11:35;3.40;;;1.48;;
36827;SDS011;22766;48.042;11.192;2022-11-09T06:14:01;1.92;;;1.15;;
36827;SDS011;22766;48.042;11.192;2022-11-09T06:16:28;6.60;;;0.93;;
36827;SDS011;22766;48.042;11.192;2022-11-09T06:18:55;2.03;;;1.17;;
36827;SDS011;22766;48.042;11.192;2022-11-09T06:21:21;1.85;;;1.10;;
36827;SDS011;22766;48.042;11.192;2022-11-09T06:23:48;1.77;;;1.10;;
36827;SDS011;22766;48.042;11.192;2022-11-09T06:26:15;3.38;;;0.77;;
36827;SDS011;22766;48.042;11.192;2022-11-09T06:28:41;1.30;;;0.93;;
36827;SDS011;22766;48.042;11.192;2022-11-09T06:31:09;2.40;;;0.80;;
36827;SDS011;22766;48.042;11.192;2022-11-09T06:33:38;1.65;;;0.80;;
36827;SDS011;22766;48.042;11.192;2022-11-09T06:36:05;2.33;;;1.27;;
36827;SDS011;22766;48.042;11.192;2022-11-09T06:38:32;1.38;;;0.93;;
36827;SDS011;22766;48.042;11.192;2022-11-09T06:40:59;2.78;;;1.42;;
36827;SDS011;22766;48.042;11.192;2022-11-09T06:43:26;1.58;;;0.95;;
36827;SDS011;22766;48.042;11.192;2022-11-09T06:45:54;1.15;;;0.82;;
36827;SDS011;22766;48.042;11.192;2022-11-09T06:48:20;1.52;;;1.00;;
36827;SDS011;22766;48.042;11.192;2022-11-09T06:50:47;1.85;;;1.10;;
36827;SDS011;22766;48.042;11.192;2022-11-09T06:53:15;1.90;;;0.90;;
36827;SDS011;22766;48.042;11.192;2022-11-09T06:55:43;2.03;;;1.00;;
36827;SDS011;22766;48.042;11.192;2022-11-09T06:58:16;2.35;;;0.90;;
36827;SDS011;22766;48.042;11.192;2022-11-09T07:00:44;1.63;;;0.88;;
36827;SDS011;22766;48.042;11.192;2022-11-09T07:03:15;2.15;;;0.93;;
36827;SDS011;22766;48.042;11.192;2022-11-09T07:05:44;1.80;;;1.00;;
36827;SDS011;22766;48.042;11.192;2022-11-09T07:08:11;2.47;;;1.00;;
36827;SDS011;22766;48.042;11.192;2022-11-09T07:10:39;3.35;;;1.58;;
36827;SDS011;22766;48.042;11.192;2022-11-09T07:13:06;1.25;;;0.93;;
36827;SDS011;22766;48.042;11.192;2022-11-09T07:15:33;0.93;;;0.73;;
36827;SDS011;22766;48.042;11.192;2022-11-09T07:18:01;1.52;;;0.80;;
36827;SDS011;22766;48.042;11.192;2022-11-09T07:20:30;1.30;;;0.80;;
36827;SDS011;22766;48.042;11.192;2022-11-09T07:22:57;1.95;;;0.80;;
36827;SDS011;22766;48.042;11.192;2022-11-09T07:25:24;2.00;;;1.00;;
36827;SDS011;22766;48.042;11.192;2022-11-09T07:27:52;2.90;;;1.17;;
36827;SDS011;22766;48.042;11.192;2022-11-09T07:30:19;3.90;;;0.95;;
36827;SDS011;22766;48.042;11.192;2022-11-09T07:32:46;2.03;;;0.80;;
36827;SDS011;22766;48.042;11.192;2022-11-09T07:35:32;1.70;;;0.75;;
36827;SDS011;22766;48.042;11.192;2022-11-09T07:37:59;3.25;;;0.95;;
36827;SDS011;22766;48.042;11.192;2022-11-09T07:40:26;0.90;;;0.80;;
36827;SDS011;22766;48.042;11.192;2022-11-09T07:42:56;1.67;;;0.90;;
36827;SDS011;22766;48.042;11.192;2022-11-09T07:45:24;1.90;;;1.08;;
36827;SDS011;22766;48.042;11.192;2022-11-09T07:48:02;1.83;;;1.00;;
36827;SDS011;22766;48.042;11.192;2022-11-09T07:50:32;1.10;;;0.85;;
36827;SDS011;22766;48.042;11.192;2022-11-09T07:53:00;1.17;;;0.80;;
36827;SDS011;22766;48.042;11.192;2022-11-09T07:55:28;2.35;;;0.90;;
36827;SDS011;22766;48.042;11.192;2022-11-09T07:58:00;2.38;;;0.93;;
36827;SDS011;22766;48.042;11.192;2022-11-09T08:00:29;1.80;;;1.40;;
36827;SDS011;22766;48.042;11.192;2022-11-09T08:02:57;5.95;;;3.30;;
36827;SDS011;22766;48.042;11.192;2022-11-09T08:05:27;4.18;;;2.05;;
36827;SDS011;22766;48.042;11.192;2022-11-09T08:07:55;5.55;;;1.75;;
36827;SDS011;22766;48.042;11.192;2022-11-09T08:10:24;3.50;;;1.50;;
36827;SDS011;22766;48.042;11.192;2022-11-09T08:12:59;2.92;;;1.73;;
36827;SDS011;22766;48.042;11.192;2022-11-09T08:15:36;2.72;;;1.30;;
36827;SDS011;22766;48.042;11.192;2022-11-09T08:18:05;2.65;;;1.35;;
36827;SDS011;22766;48.042;11.192;2022-11-09T08:20:33;6.60;;;3.03;;
36827;SDS011;22766;48.042;11.192;2022-11-09T08:23:00;9.50;;;4.93;;
36827;SDS011;22766;48.042;11.192;2022-11-09T08:25:33;8.48;;;2.17;;
36827;SDS011;22766;48.042;11.192;2022-11-09T08:28:00;3.67;;;1.98;;
36827;SDS011;22766;48.042;11.192;2022-11-09T08:30:30;2.42;;;1.40;;
36827;SDS011;22766;48.042;11.192;2022-11-09T08:32:57;7.40;;;1.42;;
36827;SDS011;22766;48.042;11.192;2022-11-09T08:35:25;1.85;;;1.08;;
36827;SDS011;22766;48.042;11.192;2022-11-09T08:37:53;2.30;;;1.08;;
36827;SDS011;22766;48.042;11.192;2022-11-09T08:40:21;1.30;;;0.80;;
36827;SDS011;22766;48.042;11.192;2022-11-09T08:42:49;1.70;;;0.63;;
36827;SDS011;22766;48.042;11.192;2022-11-09T08:45:17;2.40;;;1.13;;
36827;SDS011;22766;48.042;11.192;2022-11-09T08:47:44;1.90;;;1.02;;
36827;SDS011;22766;48.042;11.192;2022-11-09T08:50:12;2.80;;;1.25;;
36827;SDS011;22766;48.042;11.192;2022-11-09T08:52:39;2.05;;;1.20;;
36827;SDS011;22766;48.042;11.192;2022-11-09T08:55:06;2.50;;;0.93;;
36827;SDS011;22766;48.042;11.192;2022-11-09T08:57:33;3.65;;;1.35;;
36827;SDS011;22766;48.042;11.192;2022-11-09T09:00:00;1.42;;;0.63;;
36827;SDS011;22766;48.042;11.192;2022-11-09T09:02:27;1.92;;;0.95;;
36827;SDS011;22766;48.042;11.192;2022-11-09T09:04:53;1.58;;;0.70;;
36827;SDS011;22766;48.042;11.192;2022-11-09T09:07:20;2.30;;;1.10;;
36827;SDS011;22766;48.042;11.192;2022-11-09T09:09:46;1.52;;;0.80;;
36827;SDS011;22766;48.042;11.192;2022-11-09T09:12:13;1.60;;;0.80;;
36827;SDS011;22766;48.042;11.192;2022-11-09T09:14:40;3.35;;;1.10;;
36827;SDS011;22766;48.042;11.192;2022-11-09T09:17:06;1.95;;;0.93;;
36827;SDS011;22766;48.042;11.192;2022-11-09T09:19:33;1.80;;;0.73;;
36827;SDS011;22766;48.042;11.192;2022-11-09T09:22:00;1.77;;;1.02;;
36827;SDS011;22766;48.042;11.192;2022-11-09T09:24:26;2.10;;;0.90;;
36827;SDS011;22766;48.042;11.192;2022-11-09T09:26:53;2.40;;;0.60;;
36827;SDS011;22766;48.042;11.192;2022-11-09T09:29:20;1.85;;;0.90;;
36827;SDS011;22766;48.042;11.192;2022-11-09T09:31:47;2.28;;;1.00;;
36827;SDS011;22766;48.042;11.192;2022-11-09T09:34:13;1.45;;;0.75;;
36827;SDS011;22766;48.042;11.192;2022-11-09T09:36:40;1.60;;;0.70;;
36827;SDS011;22766;48.042;11.192;2022-11-09T09:39:13;3.15;;;1.00;;
36827;SDS011;22766;48.042;11.192;2022-11-09T09:41:44;2.92;;;1.13;;
36827;SDS011;22766;48.042;11.192;2022-11-09T09:46:56;3.03;;;0.70;;
36827;SDS011;22766;48.042;11.192;2022-11-09T09:49:39;1.30;;;0.85;;
36827;SDS011;22766;48.042;11.192;2022-11-09T09:57:42;4.40;;;1.05;;
36827;SDS011;22766;48.042;11.192;2022-11-09T10:00:22;5.13;;;0.88;;
36827;SDS011;22766;48.042;11.192;2022-11-09T10:02:51;2.67;;;1.00;;
36827;SDS011;22766;48.042;11.192;2022-11-09T10:05:18;2.53;;;0.98;;
36827;SDS011;22766;48.042;11.192;2022-11-09T10:07:56;5.32;;;1.42;;
36827;SDS011;22766;48.042;11.192;2022-11-09T10:10:28;3.33;;;1.40;;
36827;SDS011;22766;48.042;11.192;2022-11-09T10:16:06;4.22;;;1.30;;
36827;SDS011;22766;48.042;11.192;2022-11-09T10:31:50;1.00;;;0.40;;
36827;SDS011;22766;48.042;11.192;2022-11-09T10:34:31;1.33;;;0.50;;
36827;SDS011;22766;48.042;11.192;2022-11-09T10:37:14;0.80;;;0.40;;
36827;SDS011;22766;48.042;11.192;2022-11-09T10:39:59;2.40;;;0.40;;
36827;SDS011;22766;48.042;11.192;2022-11-09T10:43:01;1.67;;;1.08;;
36827;SDS011;22766;48.042;11.192;2022-11-09T10:45:56;2.35;;;0.50;;
36827;SDS011;22766;48.042;11.192;2022-11-09T10:48:50;0.68;;;0.45;;
36827;SDS011;22766;48.042;11.192;2022-11-09T10:54:23;0.73;;;0.45;;
36827;SDS011;22766;48.042;11.192;2022-11-09T10:59:55;1.02;;;0.47;;
36827;SDS011;22766;48.042;11.192;2022-11-09T11:02:42;0.55;;;0.47;;
36827;SDS011;22766;48.042;11.192;2022-11-09T11:05:29;0.98;;;0.35;;
36827;SDS011;22766;48.042;11.192;2022-11-09T11:08:20;1.45;;;0.70;;
36827;SDS011;22766;48.042;11.192;2022-11-09T11:17:19;1.10;;;0.40;;
36827;SDS011;22766;48.042;11.192;2022-11-09T11:23:21;1.00;;;0.30;;
36827;SDS011;22766;48.042;11.192;2022-11-09T11:26:31;0.60;;;0.30;;
36827;SDS011;22766;48.042;11.192;2022-11-09T11:29:30;1.83;;;0.70;;
36827;SDS011;22766;48.042;11.192;2022-11-09T11:32:21;1.10;;;0.55;;
36827;SDS011;22766;48.042;11.192;2022-11-09T11:35:12;3.40;;;0.57;;
36827;SDS011;22766;48.042;11.192;2022-11-09T12:02:49;0.38;;;0.30;;
36827;SDS011;22766;48.042;11.192;2022-11-09T12:21:23;0.40;;;0.30;;
36827;SDS011;22766;48.042;11.192;2022-11-09T12:24:16;1.00;;;0.40;;
36827;SDS011;22766;48.042;11.192;2022-11-09T12:36:00;1.50;;;0.43;;
36827;SDS011;22766;48.042;11.192;2022-11-09T12:39:26;0.93;;;0.40;;
36827;SDS011;22766;48.042;11.192;2022-11-09T12:42:11;2.80;;;0.40;;
36827;SDS011;22766;48.042;11.192;2022-11-09T12:45:23;1.92;;;0.40;;
36827;SDS011;22766;48.042;11.192;2022-11-09T12:48:25;0.63;;;0.30;;
36827;SDS011;22766;48.042;11.192;2022-11-09T12:51:15;2.00;;;0.35;;
36827;SDS011;22766;48.042;11.192;2022-11-09T12:54:03;0.90;;;0.47;;
36827;SDS011;22766;48.042;11.192;2022-11-09T12:56:56;0.88;;;0.30;;
36827;SDS011;22766;48.042;11.192;2022-11-09T12:59:49;0.93;;;0.40;;
36827;SDS011;22766;48.042;11.192;2022-11-09T13:02:38;0.77;;;0.30;;
36827;SDS011;22766;48.042;11.192;2022-11-09T13:05:45;2.40;;;0.50;;
36827;SDS011;22766;48.042;11.192;2022-11-09T13:08:32;2.95;;;0.47;;
36827;SDS011;22766;48.042;11.192;2022-11-09T13:11:18;3.28;;;0.30;;
36827;SDS011;22766;48.042;11.192;2022-11-09T13:23:38;0.50;;;0.40;;
36827;SDS011;22766;48.042;11.192;2022-11-09T13:35:53;2.03;;;0.50;;
36827;SDS011;22766;48.042;11.192;2022-11-09T13:38:29;0.73;;;0.40;;
36827;SDS011;22766;48.042;11.192;2022-11-09T13:44:15;0.80;;;0.22;;
36827;SDS011;22766;48.042;11.192;2022-11-09T13:47:18;1.65;;;0.52;;
36827;SDS011;22766;48.042;11.192;2022-11-09T13:50:21;2.15;;;0.43;;
36827;SDS011;22766;48.042;11.192;2022-11-09T13:59:27;0.32;;;0.20;;
36827;SDS011;22766;48.042;11.192;2022-11-09T14:02:26;2.17;;;0.43;;
36827;SDS011;22766;48.042;11.192;2022-11-09T14:08:15;2.15;;;0.50;;
36827;SDS011;22766;48.042;11.192;2022-11-09T14:11:19;1.15;;;0.47;;
36827;SDS011;22766;48.042;11.192;2022-11-09T14:17:14;0.43;;;0.28;;
36827;SDS011;22766;48.042;11.192;2022-11-09T14:23:18;0.52;;;0.32;;
36827;SDS011;22766;48.042;11.192;2022-11-09T14:26:14;1.88;;;0.50;;
36827;SDS011;22766;48.042;11.192;2022-11-09T14:29:18;0.60;;;0.40;;
36827;SDS011;22766;48.042;11.192;2022-11-09T14:35:32;0.57;;;0.30;;
36827;SDS011;22766;48.042;11.192;2022-11-09T14:38:23;0.50;;;0.30;;
36827;SDS011;22766;48.042;11.192;2022-11-09T14:41:19;0.77;;;0.32;;
36827;SDS011;22766;48.042;11.192;2022-11-09T14:44:19;7.32;;;1.83;;
36827;SDS011;22766;48.042;11.192;2022-11-09T14:50:01;3.78;;;1.30;;
36827;SDS011;22766;48.042;11.192;2022-11-09T14:52:46;3.67;;;1.10;;
36827;SDS011;22766;48.042;11.192;2022-11-09T14:55:34;2.33;;;0.70;;
36827;SDS011;22766;48.042;11.192;2022-11-09T14:58:25;1.15;;;0.60;;
36827;SDS011;22766;48.042;11.192;2022-11-09T15:07:00;1.98;;;0.65;;
36827;SDS011;22766;48.042;11.192;2022-11-09T15:09:48;0.60;;;0.30;;
36827;SDS011;22766;48.042;11.192;2022-11-09T15:12:35;1.33;;;0.60;;
36827;SDS011;22766;48.042;11.192;2022-11-09T15:15:27;0.75;;;0.50;;
36827;SDS011;22766;48.042;11.192;2022-11-09T15:18:18;0.57;;;0.50;;
36827;SDS011;22766;48.042;11.192;2022-11-09T15:26:57;0.63;;;0.20;;
36827;SDS011;22766;48.042;11.192;2022-11-09T15:29:43;0.90;;;0.40;;
36827;SDS011;22766;48.042;11.192;2022-11-09T15:32:33;0.80;;;0.40;;
36827;SDS011;22766;48.042;11.192;2022-11-09T15:35:21;2.05;;;0.30;;
36827;SDS011;22766;48.042;11.192;2022-11-09T15:38:25;1.05;;;0.43;;
36827;SDS011;22766;48.042;11.192;2022-11-09T15:41:15;0.38;;;0.38;;
36827;SDS011;22766;48.042;11.192;2022-11-09T15:44:03;4.03;;;0.40;;
36827;SDS011;22766;48.042;11.192;2022-11-09T15:46:50;0.40;;;0.32;;
36827;SDS011;22766;48.042;11.192;2022-11-09T15:49:36;0.85;;;0.40;;
36827;SDS011;22766;48.042;11.192;2022-11-09T15:52:21;0.47;;;0.30;;
36827;SDS011;22766;48.042;11.192;2022-11-09T15:55:06;0.28;;;0.25;;
36827;SDS011;22766;48.042;11.192;2022-11-09T15:57:52;0.82;;;0.40;;
36827;SDS011;22766;48.042;11.192;2022-11-09T16:00:38;0.85;;;0.40;;
36827;SDS011;22766;48.042;11.192;2022-11-09T16:03:24;0.82;;;0.30;;
36827;SDS011;22766;48.042;11.192;2022-11-09T16:06:10;0.22;;;0.20;;
36827;SDS011;22766;48.042;11.192;2022-11-09T16:08:59;0.73;;;0.40;;
36827;SDS011;22766;48.042;11.192;2022-11-09T16:11:47;1.10;;;0.50;;
36827;SDS011;22766;48.042;11.192;2022-11-09T16:14:33;2.97;;;0.50;;
36827;SDS011;22766;48.042;11.192;2022-11-09T16:17:18;0.82;;;0.50;;
36827;SDS011;22766;48.042;11.192;2022-11-09T16:20:03;1.20;;;0.40;;
36827;SDS011;22766;48.042;11.192;2022-11-09T16:22:49;0.95;;;0.45;;
36827;SDS011;22766;48.042;11.192;2022-11-09T16:25:34;0.70;;;0.45;;
36827;SDS011;22766;48.042;11.192;2022-11-09T16:28:20;1.15;;;0.50;;
36827;SDS011;22766;48.042;11.192;2022-11-09T16:31:08;1.80;;;0.40;;
36827;SDS011;22766;48.042;11.192;2022-11-09T16:33:54;2.63;;;0.50;;
36827;SDS011;22766;48.042;11.192;2022-11-09T16:36:39;1.13;;;0.22;;
36827;SDS011;22766;48.042;11.192;2022-11-09T16:39:33;0.93;;;0.50;;
36827;SDS011;22766;48.042;11.192;2022-11-09T16:42:19;1.95;;;0.65;;
36827;SDS011;22766;48.042;11.192;2022-11-09T16:45:09;1.13;;;0.50;;
36827;SDS011;22766;48.042;11.192;2022-11-09T16:47:56;4.38;;;0.82;;
36827;SDS011;22766;48.042;11.192;2022-11-09T16:50:42;1.80;;;0.73;;
36827;SDS011;22766;48.042;11.192;2022-11-09T16:53:27;3.80;;;0.60;;
36827;SDS011;22766;48.042;11.192;2022-11-09T16:56:13;2.38;;;0.60;;
36827;SDS011;22766;48.042;11.192;2022-11-09T16:58:59;0.45;;;0.30;;
36827;SDS011;22766;48.042;11.192;2022-11-09T17:04:36;5.13;;;1.13;;
36827;SDS011;22766;48.042;11.192;2022-11-09T17:07:21;0.88;;;0.65;;
36827;SDS011;22766;48.042;11.192;2022-11-09T17:10:07;0.85;;;0.50;;
36827;SDS011;22766;48.042;11.192;2022-11-09T17:12:52;1.95;;;0.57;;
36827;SDS011;22766;48.042;11.192;2022-11-09T17:15:45;1.85;;;0.80;;
36827;SDS011;22766;48.042;11.192;2022-11-09T17:18:31;2.75;;;0.90;;
36827;SDS011;22766;48.042;11.192;2022-11-09T17:21:17;1.17;;;0.77;;
36827;SDS011;22766;48.042;11.192;2022-11-09T17:24:02;0.93;;;0.63;;
36827;SDS011;22766;48.042;11.192;2022-11-09T17:26:53;1.80;;;0.90;;
36827;SDS011;22766;48.042;11.192;2022-11-09T17:29:38;1.90;;;0.77;;
36827;SDS011;22766;48.042;11.192;2022-11-09T17:32:24;1.52;;;0.80;;
36827;SDS011;22766;48.042;11.192;2022-11-09T17:35:12;2.63;;;0.80;;
36827;SDS011;22766;48.042;11.192;2022-11-09T17:37:57;1.55;;;0.93;;
36827;SDS011;22766;48.042;11.192;2022-11-09T17:40:42;1.33;;;0.60;;
36827;SDS011;22766;48.042;11.192;2022-11-09T17:43:28;1.77;;;0.80;;
36827;SDS011;22766;48.042;11.192;2022-11-09T17:46:18;4.95;;;1.00;;
36827;SDS011;22766;48.042;11.192;2022-11-09T17:49:05;1.60;;;0.90;;
36827;SDS011;22766;48.042;11.192;2022-11-09T17:51:54;4.55;;;0.85;;
36827;SDS011;22766;48.042;11.192;2022-11-09T17:54:39;2.28;;;1.25;;
36827;SDS011;22766;48.042;11.192;2022-11-09T17:57:24;2.00;;;0.90;;